Time;durP1;ratioP1;P1;durP2;ratioP2;P2;SDS_P1;SDS_P2;PMS_P1;PMS_P2;Temp;Humidity;BMP_temperature;BMP_pressure;BME280_temperature;BME280_humidity;BME280_pressure;Samples;Min_cycle;Max_cycle;Signal;HPM_P1;HPM_P2
2023/05/09 00:00:55;;;;;;;21.97;14.57;;;14.10;99.90;;;;;;5070701;28;20181;-39
2023/05/09 00:03:21;;;;;;;21.63;15.90;;;14.20;99.90;;;;;;5072100;28;20177;-39
2023/05/09 00:05:48;;;;;;;34.53;15.57;;;14.10;99.90;;;;;;5081728;28;20172;-40
2023/05/09 00:08:14;;;;;;;17.83;14.70;;;14.20;99.90;;;;;;5074874;28;20308;-39
2023/05/09 00:10:40;;;;;;;16.90;15.20;;;14.20;99.90;;;;;;5080929;28;20189;-40
2023/05/09 00:13:06;;;;;;;64.90;14.43;;;14.30;99.90;;;;;;5075088;28;20217;-39
2023/05/09 00:15:32;;;;;;;13.40;12.00;;;14.30;99.90;;;;;;5087218;28;20216;-38
2023/05/09 00:17:58;;;;;;;23.23;13.57;;;14.20;99.90;;;;;;5067538;28;20270;-39
2023/05/09 00:20:24;;;;;;;22.00;15.67;;;14.10;99.90;;;;;;5060827;28;20191;-40
2023/05/09 00:22:50;;;;;;;27.30;16.47;;;14.20;99.90;;;;;;5078219;28;20207;-38
2023/05/09 00:25:15;;;;;;;19.20;14.50;;;14.30;99.90;;;;;;5061414;28;20184;-39
2023/05/09 00:27:41;;;;;;;46.13;17.60;;;14.30;99.90;;;;;;5086233;28;20233;-39
2023/05/09 00:30:09;;;;;;;18.67;15.40;;;14.30;99.90;;;;;;5078739;28;20196;-39
2023/05/09 00:32:36;;;;;;;52.70;17.17;;;14.30;99.90;;;;;;5071016;28;20185;-39
2023/05/09 00:35:02;;;;;;;18.23;15.07;;;14.30;99.90;;;;;;5071263;28;20257;-40
2023/05/09 00:37:29;;;;;;;18.30;14.27;;;14.30;99.90;;;;;;5052909;28;20271;-39
2023/05/09 00:39:55;;;;;;;15.03;13.47;;;14.20;99.90;;;;;;5072670;28;20288;-39
2023/05/09 00:42:23;;;;;;;21.70;15.37;;;14.20;99.90;;;;;;5078341;28;20244;-39
2023/05/09 00:44:49;;;;;;;19.73;14.57;;;14.30;99.90;;;;;;5077505;28;20181;-39
2023/05/09 00:47:15;;;;;;;18.83;16.20;;;14.30;99.90;;;;;;5085791;28;20176;-39
2023/05/09 00:49:41;;;;;;;19.23;16.13;;;14.30;99.90;;;;;;5076056;28;20226;-44
2023/05/09 00:52:06;;;;;;;32.17;16.30;;;14.30;99.90;;;;;;5072768;28;20192;-39
2023/05/09 00:54:32;;;;;;;18.87;14.07;;;14.30;99.90;;;;;;5078787;28;20180;-42
2023/05/09 00:56:59;;;;;;;17.53;15.03;;;14.20;99.90;;;;;;5097909;28;20208;-41
2023/05/09 00:59:27;;;;;;;20.17;15.77;;;14.20;99.90;;;;;;5076054;28;20197;-40
2023/05/09 01:01:56;;;;;;;18.70;15.40;;;14.20;99.90;;;;;;5076945;28;20177;-41
2023/05/09 01:04:25;;;;;;;19.77;16.77;;;14.20;99.90;;;;;;5084038;28;20180;-41
2023/05/09 01:07:01;;;;;;;24.60;17.07;;;14.20;99.90;;;;;;5062152;28;20193;-45
2023/05/09 01:10:06;;;;;;;21.17;15.93;;;14.20;99.90;;;;;;5086023;28;20212;-41
2023/05/09 01:12:48;;;;;;;21.67;15.03;;;14.30;99.90;;;;;;5036141;28;20222;-39
2023/05/09 01:15:28;;;;;;;16.60;14.80;;;14.30;99.90;;;;;;5069296;28;20302;-42
2023/05/09 01:18:16;;;;;;;18.50;15.80;;;14.30;99.90;;;;;;5062612;28;20275;-43
2023/05/09 01:20:46;;;;;;;19.33;14.73;;;14.30;99.90;;;;;;5085309;28;20276;-41
2023/05/09 01:23:12;;;;;;;21.73;15.33;;;14.30;99.90;;;;;;5068108;28;20176;-41
2023/05/09 01:26:02;;;;;;;19.43;14.33;;;14.20;99.90;;;;;;5086388;28;20182;-40
2023/05/09 01:28:57;;;;;;;17.93;13.40;;;14.20;99.90;;;;;;5070005;28;20193;-41
2023/05/09 01:31:25;;;;;;;19.57;15.63;;;14.20;99.90;;;;;;5076311;28;20210;-39
2023/05/09 01:33:55;;;;;;;17.37;15.57;;;14.20;99.90;;;;;;5070855;28;20181;-40
2023/05/09 01:36:25;;;;;;;21.23;13.77;;;14.20;99.90;;;;;;5069049;28;20227;-40
2023/05/09 01:38:52;;;;;;;14.73;12.73;;;14.20;99.90;;;;;;5056600;28;20235;-40
2023/05/09 01:41:21;;;;;;;15.13;13.53;;;14.10;99.90;;;;;;5085691;28;20188;-39
2023/05/09 01:43:53;;;;;;;15.43;13.83;;;14.10;99.90;;;;;;5086285;28;20177;-44
2023/05/09 01:46:21;;;;;;;17.10;13.43;;;14.20;99.90;;;;;;5074327;28;20181;-42
2023/05/09 01:48:49;;;;;;;15.17;12.70;;;14.20;99.90;;;;;;5085492;28;20243;-40
2023/05/09 01:51:16;;;;;;;14.60;12.63;;;14.20;99.90;;;;;;5069368;28;20208;-39
2023/05/09 01:53:43;;;;;;;13.40;12.00;;;14.20;99.90;;;;;;5089469;28;20253;-39
2023/05/09 01:56:11;;;;;;;15.27;12.90;;;14.20;99.90;;;;;;5077084;28;20208;-42
2023/05/09 01:58:39;;;;;;;14.20;12.50;;;14.20;99.90;;;;;;5072798;28;20746;-39
2023/05/09 02:01:06;;;;;;;15.27;12.93;;;14.20;99.90;;;;;;5069776;28;20177;-39
2023/05/09 02:03:33;;;;;;;17.43;12.80;;;14.20;99.90;;;;;;5068820;28;20197;-39
2023/05/09 02:06:04;;;;;;;16.23;13.77;;;14.20;99.90;;;;;;5073637;28;20189;-39
2023/05/09 02:08:33;;;;;;;17.47;13.80;;;14.20;99.90;;;;;;5057187;28;20261;-41
2023/05/09 02:10:59;;;;;;;13.73;12.20;;;14.20;99.90;;;;;;5075966;28;20177;-39
2023/05/09 02:13:25;;;;;;;15.57;13.17;;;14.10;99.90;;;;;;5077034;28;20199;-40
2023/05/09 02:15:54;;;;;;;16.97;13.63;;;14.10;99.90;;;;;;5072195;28;20751;-40
2023/05/09 02:18:20;;;;;;;15.63;13.20;;;14.20;99.90;;;;;;5070067;28;20204;-39
2023/05/09 02:20:48;;;;;;;13.90;12.00;;;14.20;99.90;;;;;;5077497;28;20177;-39
2023/05/09 02:23:15;;;;;;;11.90;10.20;;;14.20;99.90;;;;;;5068592;28;20170;-41
2023/05/09 02:25:43;;;;;;;12.07;10.23;;;14.20;99.90;;;;;;5075672;28;20225;-39
2023/05/09 02:28:10;;;;;;;9.97;8.33;;;14.20;99.90;;;;;;5052354;28;20233;-39
2023/05/09 02:30:41;;;;;;;10.10;8.93;;;14.20;99.90;;;;;;5060526;28;20181;-40
2023/05/09 02:33:10;;;;;;;10.23;8.77;;;14.20;99.90;;;;;;5079265;28;20184;-40
2023/05/09 02:35:41;;;;;;;9.00;8.10;;;14.20;99.90;;;;;;5072176;28;20196;-39
2023/05/09 02:38:07;;;;;;;8.23;7.10;;;14.20;99.90;;;;;;5087123;28;20204;-40
2023/05/09 02:40:34;;;;;;;9.00;7.40;;;14.30;99.90;;;;;;5082480;28;20650;-41
2023/05/09 02:43:00;;;;;;;8.17;7.30;;;14.20;99.90;;;;;;5085583;28;20187;-47
2023/05/09 02:45:26;;;;;;;8.00;7.20;;;14.20;99.90;;;;;;5073574;28;20192;-39
2023/05/09 02:47:53;;;;;;;8.50;7.00;;;14.20;99.90;;;;;;5088797;28;20200;-41
2023/05/09 02:50:22;;;;;;;8.83;7.77;;;14.20;99.90;;;;;;5083821;28;20234;-40
2023/05/09 02:52:48;;;;;;;9.03;7.37;;;14.20;99.90;;;;;;5090751;28;20177;-39
2023/05/09 02:55:16;;;;;;;8.13;7.33;;;14.20;99.90;;;;;;5073631;28;20205;-39
2023/05/09 02:57:43;;;;;;;8.00;7.20;;;14.20;99.90;;;;;;5062783;28;20255;-39
2023/05/09 03:00:10;;;;;;;8.13;7.07;;;14.20;99.90;;;;;;5070045;28;20180;-40
2023/05/09 03:02:39;;;;;;;7.53;6.77;;;14.10;99.90;;;;;;5087188;28;20191;-44
2023/05/09 03:05:11;;;;;;;7.13;6.43;;;14.10;99.90;;;;;;5062557;28;20176;-40
2023/05/09 03:07:37;;;;;;;7.30;6.60;;;14.10;99.90;;;;;;5064121;28;20205;-39
2023/05/09 03:10:04;;;;;;;8.77;7.90;;;14.10;99.90;;;;;;5067139;28;20260;-39
2023/05/09 03:12:31;;;;;;;7.63;6.87;;;14.20;99.90;;;;;;5074125;28;20181;-39
2023/05/09 03:15:02;;;;;;;7.13;6.43;;;14.20;99.90;;;;;;5070194;28;20173;-42
2023/05/09 03:17:32;;;;;;;7.97;7.20;;;14.10;99.90;;;;;;5089304;28;20690;-39
2023/05/09 03:19:59;;;;;;;8.03;7.23;;;14.10;99.90;;;;;;5071694;28;20235;-39
2023/05/09 03:22:25;;;;;;;7.53;6.73;;;14.10;99.90;;;;;;5062415;28;20177;-39
2023/05/09 03:24:59;;;;;;;8.47;7.57;;;14.10;99.90;;;;;;5078325;28;20177;-38
2023/05/09 03:27:25;;;;;;;8.43;7.63;;;14.10;99.90;;;;;;5071510;28;20240;-39
2023/05/09 03:29:51;;;;;;;7.73;7.03;;;14.10;99.90;;;;;;5073160;28;20172;-39
2023/05/09 03:32:19;;;;;;;7.80;7.03;;;14.10;99.90;;;;;;5098892;28;20170;-40
2023/05/09 03:34:48;;;;;;;6.50;5.87;;;14.00;99.90;;;;;;5073816;28;20191;-39
2023/05/09 03:37:15;;;;;;;7.57;6.87;;;14.00;99.90;;;;;;5088741;28;20177;-40
2023/05/09 03:39:43;;;;;;;8.40;7.60;;;14.00;99.90;;;;;;5060632;28;20299;-41
2023/05/09 03:42:20;;;;;;;8.20;7.40;;;13.90;99.90;;;;;;5075064;28;20180;-37
2023/05/09 03:45:14;;;;;;;8.03;7.23;;;13.90;99.90;;;;;;5109792;28;20189;-39
2023/05/09 03:48:04;;;;;;;10.60;8.40;;;14.00;99.90;;;;;;5099220;28;20260;-36
2023/05/09 03:50:54;;;;;;;9.80;8.73;;;13.90;99.90;;;;;;5090156;28;20197;-39
2023/05/09 03:53:53;;;;;;;8.50;7.70;;;13.90;99.90;;;;;;5110759;28;20181;-40
2023/05/09 03:56:32;;;;;;;8.93;8.03;;;13.90;99.90;;;;;;5092090;28;20209;-37
2023/05/09 03:58:58;;;;;;;9.30;7.90;;;13.90;99.90;;;;;;5070828;28;20204;-36
2023/05/09 04:01:25;;;;;;;8.27;7.47;;;13.90;99.90;;;;;;5070702;28;20168;-38
2023/05/09 04:03:52;;;;;;;8.73;7.50;;;13.90;99.90;;;;;;5070280;28;20184;-36
2023/05/09 04:06:20;;;;;;;8.87;7.90;;;13.90;99.90;;;;;;5070043;28;20263;-36
2023/05/09 04:08:45;;;;;;;8.57;7.77;;;13.80;99.90;;;;;;5071743;28;20304;-36
2023/05/09 04:11:11;;;;;;;10.10;9.10;;;13.80;99.90;;;;;;5077494;28;20219;-36
2023/05/09 04:13:40;;;;;;;9.43;8.43;;;13.80;99.90;;;;;;5070717;28;20216;-38
2023/05/09 04:16:19;;;;;;;9.50;8.50;;;13.80;99.90;;;;;;5072581;28;20212;-36
2023/05/09 04:18:45;;;;;;;9.47;8.40;;;13.80;99.90;;;;;;5071432;28;20192;-36
2023/05/09 04:21:11;;;;;;;9.07;8.00;;;13.80;99.90;;;;;;5100891;28;20192;-37
2023/05/09 04:23:38;;;;;;;10.03;8.57;;;13.90;99.90;;;;;;5087723;28;20177;-38
2023/05/09 04:26:05;;;;;;;9.43;8.50;;;13.80;99.90;;;;;;5105666;28;20263;-38
2023/05/09 04:28:31;;;;;;;9.93;8.83;;;13.90;99.90;;;;;;5069773;28;20231;-37
2023/05/09 04:30:57;;;;;;;10.40;9.33;;;13.90;99.90;;;;;;5069515;28;20177;-37
2023/05/09 04:33:23;;;;;;;13.47;9.67;;;13.90;99.90;;;;;;5074602;28;20184;-36
2023/05/09 04:35:51;;;;;;;10.33;9.23;;;13.90;99.90;;;;;;5074578;28;20246;-37
2023/05/09 04:38:17;;;;;;;11.37;9.93;;;13.90;99.90;;;;;;5064697;28;20196;-37
2023/05/09 04:40:43;;;;;;;11.10;9.70;;;13.90;99.90;;;;;;5070135;28;20178;-36
2023/05/09 04:43:10;;;;;;;11.37;9.20;;;14.00;99.90;;;;;;5070170;28;20185;-36
2023/05/09 04:45:36;;;;;;;11.00;9.63;;;14.00;99.90;;;;;;5078633;28;20642;-36
2023/05/09 04:48:02;;;;;;;10.87;9.70;;;14.00;99.90;;;;;;5075604;28;20303;-37
2023/05/09 04:50:29;;;;;;;13.67;9.53;;;14.10;99.90;;;;;;5080750;28;20181;-37
2023/05/09 04:52:55;;;;;;;12.03;9.93;;;14.10;99.90;;;;;;5085372;28;20246;-37
2023/05/09 04:55:21;;;;;;;10.73;9.27;;;14.10;99.90;;;;;;5069545;28;20207;-38
2023/05/09 04:57:48;;;;;;;8.67;7.77;;;14.10;99.90;;;;;;5075483;28;20202;-36
2023/05/09 05:00:16;;;;;;;10.20;8.80;;;14.20;99.90;;;;;;5073814;28;20174;-36
2023/05/09 05:02:43;;;;;;;8.80;7.80;;;14.20;99.90;;;;;;5079654;28;20181;-36
2023/05/09 05:05:09;;;;;;;8.10;7.30;;;14.30;99.90;;;;;;5101143;28;20177;-36
2023/05/09 05:07:37;;;;;;;7.63;6.93;;;14.30;99.90;;;;;;5069270;28;20254;-36
2023/05/09 05:10:05;;;;;;;9.07;8.17;;;14.30;99.90;;;;;;5077076;28;20234;-36
2023/05/09 05:12:32;;;;;;;8.80;7.57;;;14.40;99.90;;;;;;5069908;28;20204;-37
2023/05/09 05:14:58;;;;;;;8.27;7.47;;;14.40;99.90;;;;;;5082490;28;20203;-36
2023/05/09 05:17:24;;;;;;;8.97;7.87;;;14.40;99.90;;;;;;5087089;28;20279;-36
2023/05/09 05:19:51;;;;;;;7.70;6.90;;;14.40;99.90;;;;;;5071886;28;20248;-37
2023/05/09 05:22:17;;;;;;;7.60;6.90;;;14.40;99.90;;;;;;5077604;28;20212;-36
2023/05/09 05:24:45;;;;;;;7.87;7.10;;;14.40;99.90;;;;;;5073084;28;20184;-37
2023/05/09 05:27:11;;;;;;;8.60;7.70;;;14.40;99.90;;;;;;5081067;28;20276;-40
2023/05/09 05:29:37;;;;;;;8.30;7.50;;;14.40;99.90;;;;;;5077594;28;20249;-38
2023/05/09 05:32:03;;;;;;;8.60;7.70;;;14.50;99.90;;;;;;5071011;28;20184;-38
2023/05/09 05:34:30;;;;;;;11.27;8.97;;;14.50;99.90;;;;;;5080262;28;20183;-37
2023/05/09 05:36:56;;;;;;;9.10;7.87;;;14.50;99.90;;;;;;5059023;28;20205;-38
2023/05/09 05:39:21;;;;;;;8.40;7.43;;;14.50;99.90;;;;;;5063090;28;20249;-39
2023/05/09 05:41:48;;;;;;;9.17;8.27;;;14.50;99.90;;;;;;5071538;28;20188;-39
2023/05/09 05:44:15;;;;;;;9.63;8.67;;;14.50;99.90;;;;;;5065928;28;20266;-38
2023/05/09 05:46:41;;;;;;;9.93;8.93;;;14.50;99.90;;;;;;5069350;28;20184;-38
2023/05/09 05:49:07;;;;;;;8.97;7.60;;;14.50;99.90;;;;;;5080988;28;20311;-38
2023/05/09 05:51:33;;;;;;;9.23;8.17;;;14.40;99.90;;;;;;5060351;28;20180;-38
2023/05/09 05:54:00;;;;;;;9.07;8.17;;;14.40;99.90;;;;;;5069306;28;20189;-38
2023/05/09 05:56:26;;;;;;;8.70;7.80;;;14.40;99.90;;;;;;5085040;28;20286;-37
2023/05/09 05:58:52;;;;;;;10.97;9.33;;;14.40;99.90;;;;;;5077221;28;20193;-39
2023/05/09 06:01:18;;;;;;;10.97;9.40;;;14.50;99.90;;;;;;5085067;28;20169;-40
2023/05/09 06:03:44;;;;;;;10.73;9.37;;;14.50;99.90;;;;;;5087709;28;20192;-37
2023/05/09 06:06:10;;;;;;;10.07;9.00;;;14.60;99.90;;;;;;5080774;28;20177;-38
2023/05/09 06:08:36;;;;;;;10.77;8.57;;;14.60;99.90;;;;;;5072674;28;20697;-37
2023/05/09 06:11:01;;;;;;;11.60;10.40;;;14.70;99.90;;;;;;5078577;28;20179;-40
2023/05/09 06:13:27;;;;;;;10.47;9.30;;;14.70;99.90;;;;;;5067215;28;20238;-38
2023/05/09 06:16:01;;;;;;;10.67;9.57;;;14.80;99.90;;;;;;5087975;28;20212;-38
2023/05/09 06:18:27;;;;;;;15.67;9.33;;;14.90;99.90;;;;;;5072816;28;20205;-37
2023/05/09 06:20:53;;;;;;;12.03;10.73;;;15.00;99.90;;;;;;5088825;28;20230;-36
2023/05/09 06:23:21;;;;;;;11.60;10.23;;;15.10;99.90;;;;;;5068819;28;20177;-38
2023/05/09 06:25:47;;;;;;;11.57;10.37;;;15.20;99.90;;;;;;5075846;28;20188;-37
2023/05/09 06:28:14;;;;;;;11.23;9.67;;;15.30;99.90;;;;;;5072711;28;20220;-40
2023/05/09 06:30:39;;;;;;;11.10;9.07;;;15.40;99.90;;;;;;5088029;28;20180;-37
2023/05/09 06:33:05;;;;;;;10.07;8.57;;;15.40;99.90;;;;;;5077099;28;20254;-38
2023/05/09 06:35:31;;;;;;;11.13;9.60;;;15.60;99.90;;;;;;5074490;28;20197;-38
2023/05/09 06:37:57;;;;;;;11.50;10.30;;;15.60;99.90;;;;;;5081486;28;20209;-38
2023/05/09 06:40:23;;;;;;;11.30;9.67;;;15.60;99.90;;;;;;5055619;28;20322;-36
2023/05/09 06:42:49;;;;;;;10.70;9.60;;;15.50;99.90;;;;;;5081840;28;20180;-36
2023/05/09 06:45:15;;;;;;;11.40;9.67;;;15.50;99.90;;;;;;5075901;28;20188;-40
2023/05/09 06:47:41;;;;;;;13.93;10.17;;;15.50;99.90;;;;;;5081813;28;20205;-40
2023/05/09 06:50:07;;;;;;;10.93;9.77;;;15.60;99.90;;;;;;5073852;28;20191;-38
2023/05/09 06:52:33;;;;;;;11.60;10.30;;;15.60;99.90;;;;;;5055031;28;20196;-39
2023/05/09 06:54:59;;;;;;;10.80;9.70;;;15.80;99.90;;;;;;5073747;28;20182;-38
2023/05/09 06:57:25;;;;;;;10.63;9.50;;;15.90;99.90;;;;;;5075902;28;20178;-40
2023/05/09 06:59:50;;;;;;;11.03;9.93;;;16.00;99.90;;;;;;5080412;28;20178;-38
2023/05/09 07:02:16;;;;;;;10.87;9.77;;;16.10;99.90;;;;;;5086413;28;20183;-40
2023/05/09 07:04:42;;;;;;;13.15;10.38;;;16.30;99.90;;;;;;5083522;28;20299;-38
2023/05/09 07:07:08;;;;;;;11.82;10.63;;;16.50;99.90;;;;;;5077919;28;20180;-36
2023/05/09 07:09:33;;;;;;;12.25;10.57;;;16.80;99.90;;;;;;5071379;28;20200;-37
2023/05/09 07:12:00;;;;;;;12.02;10.38;;;17.00;99.90;;;;;;5072206;28;20234;-36
2023/05/09 07:14:26;;;;;;;12.15;9.80;;;17.20;99.90;;;;;;5071508;28;20176;-38
2023/05/09 07:16:52;;;;;;;10.73;9.50;;;17.30;99.90;;;;;;5065351;28;20214;-37
2023/05/09 07:19:18;;;;;;;10.77;9.68;;;17.50;99.90;;;;;;5066297;28;20295;-40
2023/05/09 07:21:44;;;;;;;11.52;9.57;;;17.70;99.90;;;;;;5072455;28;20260;-38
2023/05/09 07:24:09;;;;;;;10.38;9.38;;;17.80;99.90;;;;;;5081909;28;20255;-36
2023/05/09 07:26:35;;;;;;;9.52;8.52;;;17.90;99.90;;;;;;5078834;28;20180;-38
2023/05/09 07:29:01;;;;;;;9.48;8.50;;;17.90;99.90;;;;;;5082606;28;20201;-38
2023/05/09 07:31:27;;;;;;;8.32;7.55;;;18.00;99.90;;;;;;5071231;28;20185;-38
2023/05/09 07:33:53;;;;;;;10.20;9.18;;;18.10;99.90;;;;;;5079963;28;20704;-39
2023/05/09 07:36:18;;;;;;;11.32;10.23;;;18.20;99.90;;;;;;5071662;28;20273;-39
2023/05/09 07:38:46;;;;;;;10.88;7.95;;;18.20;99.90;;;;;;5080205;28;20215;-38
2023/05/09 07:41:12;;;;;;;11.40;9.75;;;18.40;99.90;;;;;;5079397;28;20256;-38
2023/05/09 07:43:39;;;;;;;8.73;7.88;;;18.50;99.90;;;;;;5102297;28;20204;-37
2023/05/09 07:46:06;;;;;;;9.77;8.68;;;18.70;99.90;;;;;;5067826;28;20212;-39
2023/05/09 07:48:34;;;;;;;9.18;8.25;;;18.80;99.90;;;;;;5092973;28;20199;-37
2023/05/09 07:51:07;;;;;;;10.05;8.88;;;18.90;99.90;;;;;;5090527;28;20248;-40
2023/05/09 07:53:58;;;;;;;7.38;6.70;;;19.00;99.90;;;;;;5088043;28;20178;-38
2023/05/09 07:56:50;;;;;;;7.32;6.63;;;19.20;99.90;;;;;;5076593;28;20205;-37
2023/05/09 07:59:41;;;;;;;9.02;8.13;;;19.30;99.90;;;;;;5089810;28;20219;-37
2023/05/09 08:02:44;;;;;;;6.43;5.70;;;19.40;99.90;;;;;;5094534;28;20172;-37
2023/05/09 08:05:19;;;;;;;7.57;6.88;;;19.50;99.90;;;;;;5076811;28;20181;-37
2023/05/09 08:08:10;;;;;;;7.05;6.35;;;19.40;99.90;;;;;;5074103;28;20276;-37
2023/05/09 08:10:37;;;;;;;7.22;6.53;;;19.40;99.90;;;;;;5072612;28;20174;-37
2023/05/09 08:13:09;;;;;;;7.55;6.53;;;19.50;99.90;;;;;;5056552;28;20173;-39
2023/05/09 08:15:40;;;;;;;8.00;7.20;;;19.30;99.90;;;;;;5073582;28;20215;-37
2023/05/09 08:18:10;;;;;;;7.60;6.90;;;19.30;99.90;;;;;;5076766;28;20215;-37
2023/05/09 08:20:41;;;;;;;7.22;6.50;;;19.40;99.90;;;;;;5072580;28;20169;-37
2023/05/09 08:23:18;;;;;;;8.45;7.57;;;19.40;99.90;;;;;;5071906;28;20180;-37
2023/05/09 08:25:48;;;;;;;8.25;7.45;;;19.30;99.90;;;;;;5064084;28;20274;-37
2023/05/09 08:28:15;;;;;;;7.82;7.13;;;19.30;99.90;;;;;;5082877;28;20283;-37
2023/05/09 08:30:51;;;;;;;9.38;8.48;;;19.40;99.90;;;;;;5079245;28;20235;-37
2023/05/09 08:33:22;;;;;;;8.40;6.95;;;19.20;99.90;;;;;;5079033;28;20173;-37
2023/05/09 08:36:02;;;;;;;9.15;5.75;;;19.10;99.90;;;;;;5082723;28;20201;-37
2023/05/09 08:38:35;;;;;;;8.95;7.88;;;19.10;99.90;;;;;;5061292;28;20296;-41
2023/05/09 08:41:02;;;;;;;8.40;7.60;;;19.10;99.90;;;;;;5076454;28;20252;-43
2023/05/09 08:43:29;;;;;;;7.28;6.32;;;19.00;99.90;;;;;;5078641;28;20176;-42
2023/05/09 08:45:59;;;;;;;6.20;5.28;;;19.00;99.90;;;;;;5078864;28;20181;-40
2023/05/09 08:48:26;;;;;;;6.35;5.70;;;19.00;99.90;;;;;;5084719;28;20203;-41
2023/05/09 08:50:54;;;;;;;5.55;5.05;;;19.00;99.90;;;;;;5087328;28;20196;-39
2023/05/09 08:53:21;;;;;;;5.22;4.50;;;19.10;99.90;;;;;;5061211;28;20208;-42
2023/05/09 08:55:47;;;;;;;4.20;3.90;;;19.20;99.90;;;;;;5079570;28;20212;-44
2023/05/09 08:58:13;;;;;;;5.07;4.60;;;19.40;99.90;;;;;;5062979;28;20212;-43
2023/05/09 09:00:40;;;;;;;5.22;4.72;;;19.70;99.90;;;;;;5071034;28;20314;-45
2023/05/09 09:03:07;;;;;;;5.10;4.70;;;19.70;99.90;;;;;;5082753;28;20193;-40
2023/05/09 09:05:35;;;;;;;5.75;5.15;;;19.90;99.90;;;;;;5061442;28;20184;-43
2023/05/09 09:08:04;;;;;;;6.30;5.70;;;20.20;99.90;;;;;;5063101;28;20218;-40
2023/05/09 09:10:31;;;;;;;6.70;5.15;;;20.30;99.90;;;;;;5072567;28;20318;-40
2023/05/09 09:12:59;;;;;;;5.57;5.07;;;20.40;99.90;;;;;;5069999;28;20185;-42
2023/05/09 09:15:29;;;;;;;5.20;4.70;;;20.50;99.90;;;;;;5065603;28;20265;-41
2023/05/09 09:18:01;;;;;;;7.15;6.50;;;20.60;99.90;;;;;;5058166;28;20213;-39
2023/05/09 09:20:30;;;;;;;7.80;6.70;;;20.50;99.90;;;;;;5081441;28;20208;-42
2023/05/09 09:23:00;;;;;;;6.47;5.88;;;20.60;99.90;;;;;;5069367;28;20177;-43
2023/05/09 09:25:26;;;;;;;6.85;6.25;;;20.50;99.90;;;;;;5076465;28;20276;-43
2023/05/09 09:27:52;;;;;;;9.20;8.30;;;20.70;99.90;;;;;;5086007;28;20295;-45
2023/05/09 09:30:21;;;;;;;9.75;8.82;;;20.90;99.90;;;;;;5069306;28;20278;-41
2023/05/09 09:32:47;;;;;;;8.18;7.38;;;21.10;99.90;;;;;;5068529;28;20378;-40
2023/05/09 09:35:13;;;;;;;6.72;6.13;;;21.30;99.90;;;;;;5069186;28;20196;-40
2023/05/09 09:37:40;;;;;;;5.20;4.70;;;21.40;99.90;;;;;;5069275;28;20189;-41
2023/05/09 09:40:09;;;;;;;4.40;4.00;;;21.50;99.90;;;;;;5058624;28;20177;-44
2023/05/09 09:42:47;;;;;;;6.65;5.13;;;21.50;99.90;;;;;;5078910;28;20180;-40
2023/05/09 09:45:16;;;;;;;6.22;5.63;;;21.70;99.90;;;;;;5062544;28;20242;-40
2023/05/09 09:47:44;;;;;;;6.35;5.75;;;21.90;99.90;;;;;;5092677;28;20203;-41
2023/05/09 09:50:17;;;;;;;6.00;5.40;;;22.00;99.90;;;;;;5086422;28;20177;-40
2023/05/09 09:52:50;;;;;;;5.43;4.93;;;22.00;99.90;;;;;;5082808;28;20181;-43
2023/05/09 09:55:17;;;;;;;6.68;5.55;;;22.20;99.90;;;;;;5056522;28;20173;-38
2023/05/09 09:57:44;;;;;;;5.75;5.07;;;22.40;99.90;;;;;;5072490;28;20200;-41
2023/05/09 10:00:12;;;;;;;5.40;4.90;;;22.30;99.90;;;;;;5070315;28;20172;-37
2023/05/09 10:02:56;;;;;;;6.55;5.20;;;22.30;99.90;;;;;;5075971;28;20188;-40
2023/05/09 10:05:22;;;;;;;5.88;4.45;;;22.20;99.90;;;;;;5102304;28;20176;-37
2023/05/09 10:08:00;;;;;;;6.18;4.50;;;22.30;99.90;;;;;;5083381;28;20212;-37
2023/05/09 10:10:28;;;;;;;7.38;4.90;;;22.20;99.90;;;;;;5076428;28;20640;-38
2023/05/09 10:13:10;;;;;;;4.50;4.10;;;22.20;99.90;;;;;;5080994;28;20169;-37
2023/05/09 10:15:36;;;;;;;4.78;4.38;;;22.20;99.90;;;;;;5073395;28;20220;-40
2023/05/09 10:18:03;;;;;;;4.78;4.20;;;22.20;99.90;;;;;;5086845;28;20208;-37
2023/05/09 10:20:30;;;;;;;6.05;4.28;;;22.10;99.90;;;;;;5080903;28;20181;-36
2023/05/09 10:23:00;;;;;;;4.43;4.03;;;22.10;99.90;;;;;;5084574;28;20199;-39
2023/05/09 10:25:38;;;;;;;4.97;3.75;;;22.10;99.90;;;;;;5092801;28;20188;-39
2023/05/09 10:28:17;;;;;;;5.50;3.63;;;22.10;99.90;;;;;;5080757;28;20671;-38
2023/05/09 10:31:12;;;;;;;4.05;3.75;;;21.80;99.90;;;;;;5072321;28;20272;-37
2023/05/09 10:33:49;;;;;;;4.68;3.50;;;21.50;99.90;;;;;;5062562;28;20242;-37
2023/05/09 10:36:20;;;;;;;3.28;2.97;;;21.30;99.90;;;;;;5075835;28;20291;-40
2023/05/09 10:38:47;;;;;;;3.65;3.13;;;21.30;99.90;;;;;;5080985;28;20274;-37
2023/05/09 10:41:15;;;;;;;4.50;3.20;;;21.30;99.90;;;;;;5072147;28;20184;-37
2023/05/09 10:43:41;;;;;;;3.25;2.60;;;21.30;99.90;;;;;;5071880;28;20174;-38
2023/05/09 10:46:08;;;;;;;2.80;2.60;;;21.40;99.90;;;;;;5075252;28;20185;-37
2023/05/09 10:48:36;;;;;;;3.05;2.50;;;21.50;99.90;;;;;;5063576;28;20278;-42
2023/05/09 10:51:03;;;;;;;3.00;2.80;;;21.50;99.90;;;;;;5055260;28;20177;-38
2023/05/09 10:53:42;;;;;;;2.78;2.58;;;21.60;99.90;;;;;;5065197;28;20263;-39
2023/05/09 10:56:08;;;;;;;3.30;2.75;;;21.50;99.90;;;;;;5060746;28;20662;-39
2023/05/09 10:58:39;;;;;;;3.03;2.75;;;21.40;99.90;;;;;;5075082;28;20278;-37
2023/05/09 11:01:05;;;;;;;4.30;2.97;;;21.30;99.90;;;;;;5075179;28;20204;-38
2023/05/09 11:03:54;;;;;;;3.00;2.80;;;21.30;99.90;;;;;;5085112;28;20173;-39
2023/05/09 11:06:46;;;;;;;4.40;3.08;;;21.30;99.90;;;;;;5078884;28;20254;-37
2023/05/09 11:09:23;;;;;;;3.00;2.78;;;21.30;99.90;;;;;;5077204;28;20224;-40
2023/05/09 11:12:05;;;;;;;3.05;2.85;;;21.40;99.90;;;;;;5061351;28;20279;-39
2023/05/09 11:14:34;;;;;;;2.72;2.47;;;21.30;99.90;;;;;;5063218;28;20261;-37
2023/05/09 11:17:03;;;;;;;3.38;2.97;;;21.30;99.90;;;;;;5065619;28;20205;-40
2023/05/09 11:19:52;;;;;;;3.42;3.15;;;21.20;99.90;;;;;;5078307;28;20262;-39
2023/05/09 11:22:26;;;;;;;3.05;2.85;;;21.10;99.90;;;;;;5077667;28;20234;-39
2023/05/09 11:25:09;;;;;;;3.03;2.80;;;21.00;99.90;;;;;;5071050;28;20208;-37
2023/05/09 11:27:43;;;;;;;3.42;3.13;;;21.10;99.90;;;;;;5069860;28;20201;-38
2023/05/09 11:30:13;;;;;;;5.13;3.25;;;21.20;99.90;;;;;;5072760;28;20225;-38
2023/05/09 11:32:49;;;;;;;3.45;2.83;;;21.30;99.90;;;;;;5075291;28;20208;-38
2023/05/09 11:35:17;;;;;;;3.40;3.03;;;21.40;99.90;;;;;;5078454;28;20212;-38
2023/05/09 11:37:58;;;;;;;3.25;2.92;;;21.40;99.90;;;;;;5068311;28;20243;-37
2023/05/09 11:40:25;;;;;;;3.17;2.92;;;21.40;99.90;;;;;;5080473;28;20172;-36
2023/05/09 11:42:54;;;;;;;2.67;2.47;;;21.20;99.90;;;;;;5079050;28;20227;-37
2023/05/09 11:45:24;;;;;;;3.53;3.00;;;21.30;99.90;;;;;;5079705;28;20169;-38
2023/05/09 11:47:50;;;;;;;2.88;2.60;;;21.40;99.90;;;;;;5071729;28;20201;-38
2023/05/09 11:50:18;;;;;;;2.70;2.50;;;21.50;99.90;;;;;;5072571;28;20181;-38
2023/05/09 11:52:46;;;;;;;3.65;2.60;;;21.50;99.90;;;;;;5081178;28;20188;-37
2023/05/09 11:55:17;;;;;;;4.53;2.90;;;21.60;99.90;;;;;;5081899;28;20237;-39
2023/05/09 11:57:46;;;;;;;2.92;2.35;;;22.00;99.90;;;;;;5078914;28;20239;-37
2023/05/09 12:00:18;;;;;;;2.78;2.28;;;22.30;99.90;;;;;;5090897;28;20199;-38
2023/05/09 12:02:44;;;;;;;3.75;2.70;;;22.50;99.90;;;;;;5083042;28;20679;-37
2023/05/09 12:05:16;;;;;;;2.67;2.33;;;22.60;99.90;;;;;;5065507;28;20236;-38
2023/05/09 12:07:42;;;;;;;2.88;2.63;;;22.60;99.90;;;;;;5056021;28;20233;-37
2023/05/09 12:10:11;;;;;;;2.83;2.35;;;22.80;99.90;;;;;;5083122;28;20209;-36
2023/05/09 12:12:51;;;;;;;3.08;2.80;;;23.00;99.90;;;;;;5082577;28;20262;-37
2023/05/09 12:15:17;;;;;;;3.75;2.67;;;23.20;99.90;;;;;;5076794;28;20258;-36
2023/05/09 12:17:45;;;;;;;2.67;1.77;;;23.10;99.90;;;;;;5079632;28;20284;-38
2023/05/09 12:20:11;;;;;;;2.28;1.92;;;23.10;99.90;;;;;;5065917;28;20237;-38
2023/05/09 12:22:37;;;;;;;1.80;1.70;;;22.90;99.90;;;;;;5073455;28;20187;-37
2023/05/09 12:25:09;;;;;;;1.83;1.73;;;23.00;99.90;;;;;;5072753;28;20172;-37
2023/05/09 12:27:36;;;;;;;1.92;1.80;;;22.70;99.90;;;;;;5088026;28;20279;-38
2023/05/09 12:30:09;;;;;;;2.08;1.88;;;22.40;99.90;;;;;;5071559;28;20184;-39
2023/05/09 12:32:38;;;;;;;3.50;1.90;;;22.40;99.90;;;;;;5078631;28;20238;-38
2023/05/09 12:35:11;;;;;;;2.28;1.90;;;22.20;99.90;;;;;;5076195;28;20234;-39
2023/05/09 12:37:38;;;;;;;2.10;2.00;;;22.10;99.90;;;;;;5074994;28;20192;-39
2023/05/09 12:40:11;;;;;;;1.85;1.75;;;22.10;99.90;;;;;;5088551;28;20211;-38
2023/05/09 12:42:37;;;;;;;2.30;2.13;;;22.10;99.90;;;;;;5080906;28;20176;-39
2023/05/09 12:45:06;;;;;;;2.05;1.88;;;22.00;99.90;;;;;;5079910;28;20188;-37
2023/05/09 12:47:32;;;;;;;2.50;2.30;;;21.80;99.90;;;;;;5076257;28;20230;-39
2023/05/09 12:49:59;;;;;;;2.60;2.40;;;21.80;99.90;;;;;;5084465;28;20212;-37
2023/05/09 12:52:33;;;;;;;2.85;2.35;;;21.80;99.90;;;;;;5059907;28;20213;-41